createdAt,value
2022-08-02T00:00:14.678Z,21.20
2022-08-02T00:02:46.469Z,21.16
2022-08-02T00:05:14.132Z,21.11
2022-08-02T00:07:41.574Z,21.05
2022-08-02T00:10:10.550Z,21.00
2022-08-02T00:12:38.244Z,20.97
2022-08-02T00:15:07.836Z,20.92
2022-08-02T00:17:34.617Z,20.90
2022-08-02T00:20:02.157Z,20.87
2022-08-02T00:22:29.075Z,20.83
2022-08-02T00:24:55.989Z,20.79
2022-08-02T00:27:22.800Z,20.76
2022-08-02T00:29:53.341Z,20.72
2022-08-02T00:32:21.503Z,20.68
2022-08-02T00:34:48.567Z,20.63
2022-08-02T00:37:15.394Z,20.61
2022-08-02T00:39:43.027Z,20.57
2022-08-02T00:42:10.930Z,20.54
2022-08-02T00:44:38.222Z,20.52
2022-08-02T00:47:05.261Z,20.48
2022-08-02T00:49:32.756Z,20.47
2022-08-02T00:52:00.700Z,20.43
2022-08-02T00:54:28.071Z,20.41
2022-08-02T00:56:54.926Z,20.38
2022-08-02T00:59:21.873Z,20.36
2022-08-02T01:01:56.893Z,20.35
2022-08-02T01:04:31.282Z,20.31
2022-08-02T01:07:00.862Z,20.29
2022-08-02T01:09:28.218Z,20.27
2022-08-02T01:11:55.045Z,20.24
2022-08-02T01:14:24.501Z,20.21
2022-08-02T01:17:29.466Z,20.16
2022-08-02T01:20:35.608Z,20.11
2022-08-02T01:23:26.908Z,20.07
2022-08-02T01:26:19.201Z,20.02
2022-08-02T01:28:53.454Z,19.99
2022-08-02T01:31:47.752Z,19.96
2022-08-02T01:34:47.444Z,19.91
2022-08-02T01:37:38.185Z,19.89
2022-08-02T01:40:13.294Z,19.88
2022-08-02T01:42:46.318Z,19.84
2022-08-02T01:45:15.244Z,19.82
2022-08-02T01:47:44.573Z,19.80
2022-08-02T01:50:15.333Z,19.79
2022-08-02T01:52:53.423Z,19.76
2022-08-02T01:55:34.983Z,19.75
2022-08-02T01:58:17.917Z,19.74
2022-08-02T02:00:46.942Z,19.71
2022-08-02T02:03:22.801Z,19.71
2022-08-02T02:05:52.299Z,19.68
2022-08-02T02:08:27.140Z,19.66
2022-08-02T02:10:56.814Z,19.64
2022-08-02T02:13:28.819Z,19.62
2022-08-02T02:16:04.720Z,19.58
2022-08-02T02:18:39.329Z,19.57
2022-08-02T02:21:06.767Z,19.52
2022-08-02T02:23:35.638Z,19.51
2022-08-02T02:26:05.492Z,19.49
2022-08-02T02:28:37.236Z,19.46
2022-08-02T02:31:09.814Z,19.44
2022-08-02T02:33:41.577Z,19.41
2022-08-02T02:36:09.816Z,19.39
2022-08-02T02:38:36.905Z,19.36
2022-08-02T02:41:06.648Z,19.35
2022-08-02T02:43:35.545Z,19.32
2022-08-02T02:46:04.867Z,19.29
2022-08-02T02:48:32.286Z,19.27
2022-08-02T02:51:00.808Z,19.25
2022-08-02T02:53:29.395Z,19.23
2022-08-02T02:56:18.276Z,19.20
2022-08-02T02:58:46.958Z,19.18
2022-08-02T03:01:53.198Z,19.15
2022-08-02T03:04:18.793Z,19.10
2022-08-02T03:06:46.605Z,19.09
2022-08-02T03:09:13.715Z,19.08
2022-08-02T03:11:41.618Z,19.05
2022-08-02T03:14:12.846Z,19.04
2022-08-02T03:16:45.687Z,19.02
2022-08-02T03:19:12.921Z,19.00
2022-08-02T03:21:39.722Z,18.99
2022-08-02T03:24:07.561Z,18.97
2022-08-02T03:26:35.221Z,18.95
2022-08-02T03:29:10.115Z,18.94
2022-08-02T03:31:41.796Z,18.91
2022-08-02T03:34:08.961Z,18.90
2022-08-02T03:36:36.432Z,18.89
2022-08-02T03:39:04.466Z,18.88
2022-08-02T03:41:32.046Z,18.87
2022-08-02T03:44:00.161Z,18.87
2022-08-02T03:46:27.323Z,18.87
2022-08-02T03:48:55.371Z,18.86
2022-08-02T03:51:22.939Z,18.85
2022-08-02T03:53:50.494Z,18.84
2022-08-02T03:56:17.330Z,18.84
2022-08-02T03:58:49.033Z,18.83
2022-08-02T04:01:16.467Z,18.83
2022-08-02T04:03:43.701Z,18.83
2022-08-02T04:06:10.596Z,18.85
2022-08-02T04:08:38.718Z,18.85
2022-08-02T04:11:25.587Z,18.85
2022-08-02T04:13:54.141Z,18.84
2022-08-02T04:16:45.542Z,18.86
2022-08-02T04:19:34.387Z,18.87
2022-08-02T04:22:07.446Z,18.89
2022-08-02T04:24:44.752Z,18.92
2022-08-02T04:27:51.278Z,18.94
2022-08-02T04:30:01.315Z,18.96
2022-08-02T04:32:28.411Z,19.00
2022-08-02T04:35:19.063Z,19.02
2022-08-02T04:38:09.541Z,19.05
2022-08-02T04:40:31.038Z,19.08
2022-08-02T04:42:57.863Z,19.11
2022-08-02T04:45:25.784Z,19.14
2022-08-02T04:47:54.495Z,19.16
2022-08-02T04:50:31.032Z,19.17
2022-08-02T04:52:57.838Z,19.18
2022-08-02T04:55:28.425Z,19.20
2022-08-02T04:57:55.790Z,19.23
2022-08-02T05:00:24.156Z,19.26
2022-08-02T05:02:52.490Z,19.30
2022-08-02T05:05:19.421Z,19.32
2022-08-02T05:07:46.426Z,19.33
2022-08-02T05:10:13.306Z,19.36
2022-08-02T05:12:40.480Z,19.37
2022-08-02T05:15:12.741Z,19.41
2022-08-02T05:17:47.544Z,19.51
2022-08-02T05:20:20.305Z,19.80
2022-08-02T05:22:47.622Z,20.07
2022-08-02T05:25:15.019Z,20.22
2022-08-02T05:27:41.829Z,20.45
2022-08-02T05:30:09.366Z,20.91
2022-08-02T05:32:50.669Z,21.44
2022-08-02T05:35:22.401Z,21.89
2022-08-02T05:37:51.046Z,22.14
2022-08-02T05:40:21.609Z,22.44
2022-08-02T05:42:53.735Z,22.87
2022-08-02T05:45:20.553Z,23.20
2022-08-02T05:47:47.396Z,23.57
2022-08-02T05:50:14.274Z,23.94
2022-08-02T05:52:50.908Z,24.24
2022-08-02T05:55:36.114Z,24.36
2022-08-02T05:58:13.892Z,24.36
2022-08-02T06:00:42.558Z,24.32
2022-08-02T06:03:39.074Z,24.22
2022-08-02T06:06:13.923Z,24.10
2022-08-02T06:08:47.775Z,24.10
2022-08-02T06:11:23.587Z,24.32
2022-08-02T06:13:51.747Z,24.71
2022-08-02T06:16:32.174Z,25.07
2022-08-02T06:19:01.215Z,25.23
2022-08-02T06:22:35.229Z,25.35
2022-08-02T06:24:19.666Z,25.40
2022-08-02T06:26:52.396Z,25.45
2022-08-02T06:29:21.000Z,25.54
2022-08-02T06:31:53.459Z,25.62
2022-08-02T06:34:20.279Z,25.69
2022-08-02T06:37:10.141Z,25.97
2022-08-02T06:39:46.614Z,26.12
2022-08-02T06:42:17.970Z,26.06
2022-08-02T06:44:57.450Z,26.15
2022-08-02T06:47:24.716Z,26.40
2022-08-02T06:49:54.741Z,26.69
2022-08-02T06:52:29.738Z,27.02
2022-08-02T06:55:02.556Z,27.23
2022-08-02T06:57:30.354Z,27.22
2022-08-02T06:59:58.518Z,27.25
2022-08-02T07:02:25.504Z,27.42
2022-08-02T07:04:52.404Z,27.75
2022-08-02T07:07:19.809Z,27.95
2022-08-02T07:10:00.238Z,28.07
2022-08-02T07:12:30.539Z,28.22
2022-08-02T07:14:59.718Z,28.33
2022-08-02T07:17:27.415Z,28.52
2022-08-02T07:19:54.266Z,28.90
2022-08-02T07:22:23.334Z,29.26
2022-08-02T07:24:50.918Z,29.59
2022-08-02T07:27:17.721Z,29.86
2022-08-02T07:29:45.284Z,30.11
2022-08-02T07:32:18.613Z,30.30
2022-08-02T07:34:51.215Z,30.45
2022-08-02T07:37:35.772Z,30.42
2022-08-02T07:40:13.842Z,30.21
2022-08-02T07:42:43.711Z,30.01
2022-08-02T07:45:12.443Z,29.85
2022-08-02T07:47:40.581Z,30.01
2022-08-02T07:50:09.707Z,30.19
2022-08-02T07:52:36.772Z,30.32
2022-08-02T07:55:05.046Z,30.39
2022-08-02T07:57:32.914Z,30.47
2022-08-02T07:59:59.751Z,30.58
2022-08-02T08:02:26.564Z,30.75
2022-08-02T08:04:53.814Z,31.00
2022-08-02T08:07:20.961Z,31.21
2022-08-02T08:09:50.699Z,31.29
2022-08-02T08:12:20.812Z,31.38
2022-08-02T08:14:47.623Z,31.28
2022-08-02T08:17:14.392Z,31.04
2022-08-02T08:19:51.163Z,30.86
2022-08-02T08:22:21.993Z,30.86
2022-08-02T08:24:49.235Z,30.95
2022-08-02T08:27:18.118Z,31.06
2022-08-02T08:29:45.917Z,31.07
2022-08-02T08:32:17.454Z,30.98
2022-08-02T08:34:48.029Z,30.88
2022-08-02T08:37:16.729Z,30.83
2022-08-02T08:39:57.078Z,30.81
2022-08-02T08:42:27.177Z,30.75
2022-08-02T08:44:56.444Z,30.65
2022-08-02T08:47:33.909Z,30.59
2022-08-02T08:50:22.743Z,30.54
2022-08-02T08:53:12.192Z,30.44
2022-08-02T08:55:40.933Z,30.33
2022-08-02T08:58:07.753Z,30.21
2022-08-02T09:00:36.157Z,30.12
2022-08-02T09:03:08.584Z,30.03
2022-08-02T09:05:37.533Z,29.98
2022-08-02T09:08:05.949Z,29.89
2022-08-02T09:10:41.639Z,29.85
2022-08-02T09:13:43.544Z,29.77
2022-08-02T09:16:12.450Z,29.71
2022-08-02T09:18:44.497Z,29.68
2022-08-02T09:21:12.196Z,29.63
2022-08-02T09:23:40.938Z,29.58
2022-08-02T09:26:12.335Z,29.53
2022-08-02T09:28:42.846Z,29.47
2022-08-02T09:31:12.987Z,29.43
2022-08-02T09:33:42.185Z,29.38
2022-08-02T09:36:12.242Z,29.37
2022-08-02T09:38:40.731Z,29.36
2022-08-02T09:41:25.171Z,29.35
2022-08-02T09:44:04.522Z,29.33
2022-08-02T09:46:42.094Z,29.34
2022-08-02T09:49:13.345Z,29.31
2022-08-02T09:51:46.655Z,29.33
2022-08-02T09:54:19.160Z,29.34
2022-08-02T09:56:53.138Z,29.34
2022-08-02T09:59:21.722Z,29.33
2022-08-02T10:01:51.172Z,29.34
2022-08-02T10:04:52.658Z,29.35
2022-08-02T10:07:22.428Z,29.37
2022-08-02T10:09:50.708Z,29.34
2022-08-02T10:12:20.134Z,29.37
2022-08-02T10:14:50.147Z,29.35
2022-08-02T10:17:18.690Z,29.34
2022-08-02T10:20:03.429Z,29.33
2022-08-02T10:22:33.598Z,29.30
2022-08-02T10:25:06.695Z,29.30
2022-08-02T10:27:55.450Z,29.32
2022-08-02T10:30:26.021Z,29.34
2022-08-02T10:32:55.104Z,29.35
2022-08-02T10:35:25.703Z,29.36
2022-08-02T10:37:57.116Z,29.34
2022-08-02T10:40:24.236Z,29.38
2022-08-02T10:42:53.966Z,29.41
2022-08-02T10:45:22.853Z,29.44
2022-08-02T10:48:04.258Z,29.46
2022-08-02T10:50:46.256Z,29.47
2022-08-02T10:53:23.993Z,29.50
2022-08-02T10:55:53.072Z,29.52
2022-08-02T10:58:26.218Z,29.56
2022-08-02T11:00:53.450Z,29.60
2022-08-02T11:03:29.529Z,29.64
2022-08-02T11:06:05.523Z,29.68
2022-08-02T11:08:33.214Z,29.69
2022-08-02T11:11:53.313Z,29.76
2022-08-02T11:14:08.780Z,29.84
2022-08-02T11:16:57.549Z,29.91
2022-08-02T11:19:26.376Z,29.94
2022-08-02T11:22:16.483Z,29.99
2022-08-02T11:24:47.329Z,30.05
2022-08-02T11:27:21.701Z,30.10
2022-08-02T11:29:49.650Z,30.14
2022-08-02T11:32:30.843Z,30.19
2022-08-02T11:34:58.883Z,30.23
2022-08-02T11:37:39.190Z,30.30
2022-08-02T11:40:18.975Z,30.34
2022-08-02T11:42:53.477Z,30.38
2022-08-02T11:45:29.718Z,30.41
2022-08-02T11:47:57.172Z,30.46
2022-08-02T11:50:29.649Z,30.51
2022-08-02T11:52:57.842Z,30.56
2022-08-02T11:55:30.366Z,30.61
2022-08-02T11:58:04.464Z,30.67
2022-08-02T12:00:32.285Z,30.73
2022-08-02T12:02:59.187Z,30.80
2022-08-02T12:06:03.879Z,30.89
2022-08-02T12:08:13.701Z,31.01
2022-08-02T12:10:48.550Z,31.12
2022-08-02T12:13:15.580Z,31.22
2022-08-02T12:15:45.322Z,31.31
2022-08-02T12:18:40.311Z,31.42
2022-08-02T12:21:27.010Z,31.54
2022-08-02T12:23:59.623Z,31.63
2022-08-02T12:26:29.147Z,31.71
2022-08-02T12:28:59.816Z,31.77
2022-08-02T12:31:56.228Z,31.77
2022-08-02T12:34:32.001Z,31.78
2022-08-02T12:37:08.344Z,31.81
2022-08-02T12:39:49.823Z,31.93
2022-08-02T12:42:16.985Z,31.99
2022-08-02T12:44:58.809Z,32.07
2022-08-02T12:47:31.389Z,32.14
2022-08-02T12:50:14.817Z,32.23
2022-08-02T12:52:41.598Z,32.32
2022-08-02T12:55:19.160Z,32.46
2022-08-02T12:58:00.807Z,32.57
2022-08-02T13:00:35.082Z,32.65
2022-08-02T13:03:02.007Z,32.67
2022-08-02T13:05:30.162Z,32.72
2022-08-02T13:08:17.400Z,32.72
2022-08-02T13:10:44.670Z,32.70
2022-08-02T13:13:11.557Z,32.68
2022-08-02T13:15:46.443Z,32.67
2022-08-02T13:18:18.257Z,32.65
2022-08-02T13:20:45.616Z,32.66
2022-08-02T13:23:20.959Z,32.67
2022-08-02T13:25:48.229Z,32.69
2022-08-02T13:28:19.924Z,32.75
2022-08-02T13:30:47.583Z,32.82
2022-08-02T13:33:15.910Z,32.90
2022-08-02T13:35:44.429Z,33.00
2022-08-02T13:38:11.334Z,33.02
2022-08-02T13:41:04.315Z,33.08
2022-08-02T13:43:52.578Z,33.15
2022-08-02T13:46:29.333Z,33.24
2022-08-02T13:48:56.982Z,33.30
2022-08-02T13:51:23.830Z,33.35
2022-08-02T13:53:50.640Z,33.37
2022-08-02T13:56:17.520Z,33.40
2022-08-02T13:58:44.303Z,33.42
2022-08-02T14:01:11.234Z,33.41
2022-08-02T14:04:07.438Z,33.42
2022-08-02T14:06:24.878Z,33.39
2022-08-02T14:08:52.206Z,33.38
2022-08-02T14:11:19.011Z,33.42
2022-08-02T14:13:45.898Z,33.46
2022-08-02T14:16:12.769Z,33.45
2022-08-02T14:18:39.576Z,33.48
2022-08-02T14:21:06.420Z,33.50
2022-08-02T14:23:50.434Z,33.52
2022-08-02T14:26:27.379Z,33.51
2022-08-02T14:28:55.097Z,33.55
2022-08-02T14:31:21.902Z,33.57
2022-08-02T14:33:48.791Z,33.63
2022-08-02T14:36:15.708Z,33.67
2022-08-02T14:38:55.436Z,33.69
2022-08-02T14:41:23.073Z,33.72
2022-08-02T14:44:05.367Z,33.76
2022-08-02T14:46:33.397Z,33.77
2022-08-02T14:49:03.882Z,33.73
2022-08-02T14:51:35.832Z,33.77
2022-08-02T14:54:08.638Z,33.80
2022-08-02T14:56:38.853Z,33.83
2022-08-02T14:59:06.008Z,33.84
2022-08-02T15:01:33.045Z,33.82
2022-08-02T15:04:00.106Z,33.81
2022-08-02T15:06:31.981Z,33.83
2022-08-02T15:09:01.841Z,33.78
2022-08-02T15:11:28.762Z,33.75
2022-08-02T15:13:59.003Z,33.69
2022-08-02T15:16:47.406Z,33.66
2022-08-02T15:19:13.701Z,33.63
2022-08-02T15:21:52.504Z,33.64
2022-08-02T15:24:21.584Z,33.63
2022-08-02T15:26:50.159Z,33.60
2022-08-02T15:29:18.285Z,33.53
2022-08-02T15:31:45.115Z,33.44
2022-08-02T15:34:11.963Z,33.34
2022-08-02T15:36:39.094Z,33.27
2022-08-02T15:39:06.398Z,33.24
2022-08-02T15:41:33.196Z,33.23
2022-08-02T15:44:01.843Z,33.25
2022-08-02T15:46:31.115Z,33.29
2022-08-02T15:48:59.759Z,33.29
2022-08-02T15:51:27.371Z,33.26
2022-08-02T15:53:54.213Z,33.22
2022-08-02T15:56:21.931Z,33.19
2022-08-02T15:58:52.054Z,33.16
2022-08-02T16:01:24.082Z,33.14
2022-08-02T16:03:51.036Z,33.14
2022-08-02T16:06:17.838Z,33.13
2022-08-02T16:08:53.324Z,33.16
2022-08-02T16:11:20.734Z,33.17
2022-08-02T16:13:53.199Z,33.17
2022-08-02T16:16:28.924Z,33.18
2022-08-02T16:18:56.526Z,33.19
2022-08-02T16:21:24.622Z,33.20
2022-08-02T16:24:01.073Z,33.20
2022-08-02T16:26:34.155Z,33.19
2022-08-02T16:29:02.931Z,33.18
2022-08-02T16:31:30.202Z,33.15
2022-08-02T16:33:57.684Z,33.13
2022-08-02T16:36:26.646Z,33.13
2022-08-02T16:38:55.076Z,33.12
2022-08-02T16:41:23.037Z,33.10
2022-08-02T16:43:50.030Z,33.10
2022-08-02T16:46:16.866Z,33.07
2022-08-02T16:48:50.836Z,33.07
2022-08-02T16:51:19.129Z,33.04
2022-08-02T16:53:59.943Z,33.03
2022-08-02T16:56:28.912Z,33.00
2022-08-02T16:58:58.709Z,32.99
2022-08-02T17:02:02.206Z,32.96
2022-08-02T17:04:15.921Z,32.92
2022-08-02T17:06:47.816Z,32.89
2022-08-02T17:10:04.554Z,32.86
2022-08-02T17:12:09.973Z,32.82
2022-08-02T17:14:54.569Z,32.79
2022-08-02T17:17:22.605Z,32.78
2022-08-02T17:20:02.254Z,32.75
2022-08-02T17:22:29.154Z,32.76
2022-08-02T17:24:56.483Z,32.75
2022-08-02T17:27:26.256Z,32.74
2022-08-02T17:29:53.573Z,32.72
2022-08-02T17:32:20.511Z,32.71
2022-08-02T17:34:48.777Z,32.69
2022-08-02T17:37:23.581Z,32.66
2022-08-02T17:39:51.975Z,32.65
2022-08-02T17:42:23.437Z,32.61
2022-08-02T17:45:01.111Z,32.60
2022-08-02T17:47:42.713Z,32.57
2022-08-02T17:50:12.411Z,32.55
2022-08-02T17:52:51.909Z,32.52
2022-08-02T17:55:20.135Z,32.49
2022-08-02T17:57:56.212Z,32.45
2022-08-02T18:00:31.771Z,32.40
2022-08-02T18:03:02.186Z,32.35
2022-08-02T18:05:38.958Z,32.30
2022-08-02T18:08:08.946Z,32.24
2022-08-02T18:10:35.841Z,32.18
2022-08-02T18:13:03.695Z,32.13
2022-08-02T18:15:32.368Z,32.07
2022-08-02T18:18:00.158Z,32.01
2022-08-02T18:20:26.997Z,31.96
2022-08-02T18:22:58.574Z,31.92
2022-08-02T18:25:37.317Z,31.88
2022-08-02T18:28:13.304Z,31.82
2022-08-02T18:30:40.598Z,31.78
2022-08-02T18:33:55.359Z,31.74
2022-08-02T18:35:55.734Z,31.70
2022-08-02T18:38:24.747Z,31.67
2022-08-02T18:40:52.072Z,31.64
2022-08-02T18:43:19.855Z,31.61
2022-08-02T18:46:06.845Z,31.56
2022-08-02T18:48:39.582Z,31.52
2022-08-02T18:51:11.550Z,31.49
2022-08-02T18:53:42.342Z,31.47
2022-08-02T18:56:20.236Z,31.44
2022-08-02T18:58:55.979Z,31.40
2022-08-02T19:01:32.282Z,31.37
2022-08-02T19:04:03.146Z,31.32
2022-08-02T19:06:30.617Z,31.29
2022-08-02T19:09:11.445Z,31.27
2022-08-02T19:11:47.213Z,31.24
2022-08-02T19:14:19.155Z,31.21
2022-08-02T19:16:56.256Z,31.19
2022-08-02T19:19:23.531Z,31.17
2022-08-02T19:22:16.394Z,31.15
2022-08-02T19:24:43.997Z,31.10
2022-08-02T19:27:15.294Z,31.08
2022-08-02T19:29:48.971Z,31.05
2022-08-02T19:32:41.708Z,31.02
2022-08-02T19:35:19.711Z,30.97
2022-08-02T19:37:55.918Z,30.94
2022-08-02T19:40:27.491Z,30.91
2022-08-02T19:44:24.134Z,30.88
2022-08-02T19:45:51.119Z,30.84
2022-08-02T19:48:24.097Z,30.82
2022-08-02T19:50:56.044Z,30.78
2022-08-02T19:53:24.435Z,30.75
2022-08-02T19:55:58.487Z,30.72
2022-08-02T19:58:29.081Z,30.68
2022-08-02T20:00:57.629Z,30.64
2022-08-02T20:03:52.211Z,30.59
2022-08-02T20:06:13.456Z,30.53
2022-08-02T20:08:52.028Z,30.50
2022-08-02T20:11:20.274Z,30.44
2022-08-02T20:13:50.742Z,30.39
2022-08-02T20:16:20.910Z,30.37
2022-08-02T20:18:56.172Z,30.32
2022-08-02T20:21:35.613Z,30.29
2022-08-02T20:24:06.372Z,30.26
2022-08-02T20:26:35.284Z,30.20
2022-08-02T20:29:04.027Z,30.18
2022-08-02T20:31:31.049Z,30.16
2022-08-02T20:33:57.909Z,30.12
2022-08-02T20:36:28.543Z,30.09
2022-08-02T20:38:55.914Z,30.08
2022-08-02T20:41:23.629Z,30.07
2022-08-02T20:44:04.237Z,30.03
2022-08-02T20:46:31.028Z,30.01
2022-08-02T20:48:57.994Z,30.01
2022-08-02T20:51:33.459Z,29.99
2022-08-02T20:54:00.797Z,29.97
2022-08-02T20:56:29.366Z,29.96
2022-08-02T20:59:04.176Z,29.95
2022-08-02T21:04:29.909Z,29.90
2022-08-02T21:06:59.049Z,29.87
2022-08-02T21:09:53.010Z,29.86
2022-08-02T21:12:12.940Z,29.84
2022-08-02T21:14:40.491Z,29.82
2022-08-02T21:17:11.071Z,29.81
2022-08-02T21:19:38.253Z,29.78
2022-08-02T21:22:11.228Z,29.76
2022-08-02T21:24:38.965Z,29.75
2022-08-02T21:27:05.782Z,29.72
2022-08-02T21:29:52.713Z,29.71
2022-08-02T21:32:21.569Z,29.69
2022-08-02T21:34:49.298Z,29.67
2022-08-02T21:37:16.884Z,29.66
2022-08-02T21:39:43.889Z,29.65
2022-08-02T21:42:22.386Z,29.63
2022-08-02T21:44:50.875Z,29.59
2022-08-02T21:47:25.137Z,29.60
2022-08-02T21:50:13.337Z,29.58
2022-08-02T21:52:42.399Z,29.55
2022-08-02T21:55:21.397Z,29.53
2022-08-02T21:57:51.256Z,29.52
2022-08-02T22:00:28.540Z,29.50
2022-08-02T22:02:56.106Z,29.48
2022-08-02T22:05:23.071Z,29.45
2022-08-02T22:07:50.580Z,29.43
2022-08-02T22:10:17.797Z,29.42
2022-08-02T22:12:45.065Z,29.39
2022-08-02T22:15:12.013Z,29.38
2022-08-02T22:17:53.456Z,29.35
2022-08-02T22:20:25.596Z,29.31
2022-08-02T22:22:56.043Z,29.29
2022-08-02T22:25:35.967Z,29.27
2022-08-02T22:28:38.367Z,29.24
2022-08-02T22:30:58.129Z,29.20
2022-08-02T22:33:47.082Z,29.19
2022-08-02T22:36:29.540Z,29.17
2022-08-02T22:38:56.647Z,29.14
2022-08-02T22:41:23.463Z,29.13
2022-08-02T22:43:50.833Z,29.11
2022-08-02T22:46:17.888Z,29.11
2022-08-02T22:48:45.456Z,29.08
2022-08-02T22:51:13.811Z,29.06
2022-08-02T22:53:42.280Z,29.05
2022-08-02T22:56:10.553Z,29.02
2022-08-02T22:59:05.637Z,29.91
2022-08-02T23:01:24.823Z,28.96
2022-08-02T23:03:51.718Z,28.92
2022-08-02T23:06:19.270Z,28.90
2022-08-02T23:08:49.877Z,28.87
2022-08-02T23:11:16.786Z,28.84
2022-08-02T23:13:43.611Z,28.81
2022-08-02T23:16:28.924Z,28.78
2022-08-02T23:19:14.336Z,28.73
2022-08-02T23:22:01.967Z,28.67
2022-08-02T23:24:28.556Z,28.63
2022-08-02T23:26:55.352Z,28.58
2022-08-02T23:29:22.585Z,28.56
2022-08-02T23:31:49.381Z,28.52
2022-08-02T23:34:16.398Z,28.49
2022-08-02T23:36:43.256Z,28.44
2022-08-02T23:39:10.109Z,28.38
2022-08-02T23:41:36.958Z,28.35
2022-08-02T23:44:13.430Z,28.30
2022-08-02T23:46:44.820Z,28.25
2022-08-02T23:49:12.696Z,28.21
2022-08-02T23:51:39.778Z,28.15
2022-08-02T23:54:06.568Z,28.12
2022-08-02T23:56:33.373Z,28.06
2022-08-02T23:59:00.174Z,28.02
